sensor_id;sensor_type;location;lat;lon;timestamp;temperature;humidity
57829;DHT22;43657;52.698;6.314;2022-12-07T00:02:23;2.40;99.90
57829;DHT22;43657;52.698;6.314;2022-12-07T00:04:49;2.40;99.90
57829;DHT22;43657;52.698;6.314;2022-12-07T00:07:14;2.40;99.90
57829;DHT22;43657;52.698;6.314;2022-12-07T00:09:40;2.30;99.90
57829;DHT22;43657;52.698;6.314;2022-12-07T00:12:07;2.30;99.90
57829;DHT22;43657;52.698;6.314;2022-12-07T00:14:33;2.20;99.90
57829;DHT22;43657;52.698;6.314;2022-12-07T00:16:59;2.10;99.90
57829;DHT22;43657;52.698;6.314;2022-12-07T00:19:24;2.10;99.90
57829;DHT22;43657;52.698;6.314;2022-12-07T00:21:50;2.00;99.90
57829;DHT22;43657;52.698;6.314;2022-12-07T00:24:15;2.00;99.90
57829;DHT22;43657;52.698;6.314;2022-12-07T00:26:42;2.10;99.90
57829;DHT22;43657;52.698;6.314;2022-12-07T00:29:19;2.10;99.90
57829;DHT22;43657;52.698;6.314;2022-12-07T00:31:45;2.10;99.90
57829;DHT22;43657;52.698;6.314;2022-12-07T00:34:18;2.20;99.90
57829;DHT22;43657;52.698;6.314;2022-12-07T00:36:43;2.20;99.90
57829;DHT22;43657;52.698;6.314;2022-12-07T00:39:09;2.20;99.90
57829;DHT22;43657;52.698;6.314;2022-12-07T00:41:35;2.20;99.90
57829;DHT22;43657;52.698;6.314;2022-12-07T00:44:00;2.30;99.90
57829;DHT22;43657;52.698;6.314;2022-12-07T00:46:26;2.30;99.90
57829;DHT22;43657;52.698;6.314;2022-12-07T00:48:53;2.40;99.90
57829;DHT22;43657;52.698;6.314;2022-12-07T00:51:22;2.40;99.90
57829;DHT22;43657;52.698;6.314;2022-12-07T00:53:48;2.40;99.90
57829;DHT22;43657;52.698;6.314;2022-12-07T00:56:16;2.30;99.90
57829;DHT22;43657;52.698;6.314;2022-12-07T00:58:42;2.30;99.90
57829;DHT22;43657;52.698;6.314;2022-12-07T01:01:08;2.40;99.90
57829;DHT22;43657;52.698;6.314;2022-12-07T01:03:35;2.40;99.90
57829;DHT22;43657;52.698;6.314;2022-12-07T01:06:01;2.40;99.90
57829;DHT22;43657;52.698;6.314;2022-12-07T01:08:27;2.40;99.90
57829;DHT22;43657;52.698;6.314;2022-12-07T01:11:01;2.30;99.90
57829;DHT22;43657;52.698;6.314;2022-12-07T01:13:27;2.30;99.90
57829;DHT22;43657;52.698;6.314;2022-12-07T01:16:00;2.40;99.90
57829;DHT22;43657;52.698;6.314;2022-12-07T01:18:28;2.30;99.90
57829;DHT22;43657;52.698;6.314;2022-12-07T01:23:27;2.20;99.90
57829;DHT22;43657;52.698;6.314;2022-12-07T01:25:55;2.20;99.90
57829;DHT22;43657;52.698;6.314;2022-12-07T01:28:20;2.20;99.90
57829;DHT22;43657;52.698;6.314;2022-12-07T01:30:58;2.10;99.90
57829;DHT22;43657;52.698;6.314;2022-12-07T01:33:24;2.10;99.90
57829;DHT22;43657;52.698;6.314;2022-12-07T01:35:49;2.10;99.90
57829;DHT22;43657;52.698;6.314;2022-12-07T01:38:15;2.10;99.90
57829;DHT22;43657;52.698;6.314;2022-12-07T01:40:40;2.20;99.90
57829;DHT22;43657;52.698;6.314;2022-12-07T01:43:17;2.30;99.90
57829;DHT22;43657;52.698;6.314;2022-12-07T01:45:43;2.30;99.90
57829;DHT22;43657;52.698;6.314;2022-12-07T01:48:11;2.40;99.90
57829;DHT22;43657;52.698;6.314;2022-12-07T01:50:38;2.40;99.90
57829;DHT22;43657;52.698;6.314;2022-12-07T01:53:06;2.40;99.90
57829;DHT22;43657;52.698;6.314;2022-12-07T01:55:38;2.40;99.90
57829;DHT22;43657;52.698;6.314;2022-12-07T01:58:05;2.30;99.90
57829;DHT22;43657;52.698;6.314;2022-12-07T02:00:31;2.30;99.90
57829;DHT22;43657;52.698;6.314;2022-12-07T02:05:41;2.30;99.90
57829;DHT22;43657;52.698;6.314;2022-12-07T02:08:09;2.30;99.90
57829;DHT22;43657;52.698;6.314;2022-12-07T02:10:36;2.20;99.90
57829;DHT22;43657;52.698;6.314;2022-12-07T02:13:05;2.20;99.90
57829;DHT22;43657;52.698;6.314;2022-12-07T02:34:41;1.80;99.90
57829;DHT22;43657;52.698;6.314;2022-12-07T02:45:36;2.00;99.90
57829;DHT22;43657;52.698;6.314;2022-12-07T02:48:03;2.10;99.90
57829;DHT22;43657;52.698;6.314;2022-12-07T02:50:30;2.10;99.90
57829;DHT22;43657;52.698;6.314;2022-12-07T02:52:55;2.10;99.90
57829;DHT22;43657;52.698;6.314;2022-12-07T02:55:28;2.10;99.90
57829;DHT22;43657;52.698;6.314;2022-12-07T03:01:12;2.10;99.90
57829;DHT22;43657;52.698;6.314;2022-12-07T03:03:46;2.20;99.90
57829;DHT22;43657;52.698;6.314;2022-12-07T03:06:28;2.30;99.90
57829;DHT22;43657;52.698;6.314;2022-12-07T03:08:57;2.40;99.90
57829;DHT22;43657;52.698;6.314;2022-12-07T03:11:48;2.50;99.90
57829;DHT22;43657;52.698;6.314;2022-12-07T03:16:50;2.60;99.90
57829;DHT22;43657;52.698;6.314;2022-12-07T03:19:20;2.60;99.90
57829;DHT22;43657;52.698;6.314;2022-12-07T03:21:49;2.70;99.90
57829;DHT22;43657;52.698;6.314;2022-12-07T03:24:21;2.80;99.90
57829;DHT22;43657;52.698;6.314;2022-12-07T03:27:05;2.80;99.90
57829;DHT22;43657;52.698;6.314;2022-12-07T03:29:42;2.80;99.90
57829;DHT22;43657;52.698;6.314;2022-12-07T03:32:20;2.90;99.90
57829;DHT22;43657;52.698;6.314;2022-12-07T03:35:22;2.80;99.90
57829;DHT22;43657;52.698;6.314;2022-12-07T03:38:02;2.80;99.90
57829;DHT22;43657;52.698;6.314;2022-12-07T03:43:05;2.70;99.90
57829;DHT22;43657;52.698;6.314;2022-12-07T03:45:41;2.70;99.90
57829;DHT22;43657;52.698;6.314;2022-12-07T03:48:27;2.60;99.90
57829;DHT22;43657;52.698;6.314;2022-12-07T03:56:30;2.50;99.90
57829;DHT22;43657;52.698;6.314;2022-12-07T03:58:56;2.40;99.90
57829;DHT22;43657;52.698;6.314;2022-12-07T04:01:23;2.40;99.90
57829;DHT22;43657;52.698;6.314;2022-12-07T04:03:48;2.40;99.90
57829;DHT22;43657;52.698;6.314;2022-12-07T04:06:14;2.40;99.90
57829;DHT22;43657;52.698;6.314;2022-12-07T04:08:40;2.40;99.90
57829;DHT22;43657;52.698;6.314;2022-12-07T04:11:05;2.40;99.90
57829;DHT22;43657;52.698;6.314;2022-12-07T04:13:31;2.30;99.90
57829;DHT22;43657;52.698;6.314;2022-12-07T04:16:16;2.30;99.90
57829;DHT22;43657;52.698;6.314;2022-12-07T04:18:42;2.30;99.90
57829;DHT22;43657;52.698;6.314;2022-12-07T04:21:08;2.20;99.90
57829;DHT22;43657;52.698;6.314;2022-12-07T04:23:33;2.20;99.90
57829;DHT22;43657;52.698;6.314;2022-12-07T04:25:59;2.20;99.90
57829;DHT22;43657;52.698;6.314;2022-12-07T04:28:25;2.10;99.90
57829;DHT22;43657;52.698;6.314;2022-12-07T04:30:50;2.00;99.90
57829;DHT22;43657;52.698;6.314;2022-12-07T04:33:16;2.00;99.90
57829;DHT22;43657;52.698;6.314;2022-12-07T04:35:42;2.00;99.90
57829;DHT22;43657;52.698;6.314;2022-12-07T04:38:08;1.90;99.90
57829;DHT22;43657;52.698;6.314;2022-12-07T04:40:34;2.00;99.90
57829;DHT22;43657;52.698;6.314;2022-12-07T04:43:00;1.90;99.90
57829;DHT22;43657;52.698;6.314;2022-12-07T04:45:25;1.80;99.90
57829;DHT22;43657;52.698;6.314;2022-12-07T04:47:51;1.80;99.90
57829;DHT22;43657;52.698;6.314;2022-12-07T04:50:17;1.80;99.90
57829;DHT22;43657;52.698;6.314;2022-12-07T04:52:42;1.80;99.90
57829;DHT22;43657;52.698;6.314;2022-12-07T04:55:08;1.70;99.90
57829;DHT22;43657;52.698;6.314;2022-12-07T04:57:36;1.70;99.90
57829;DHT22;43657;52.698;6.314;2022-12-07T05:00:03;1.60;99.90
57829;DHT22;43657;52.698;6.314;2022-12-07T05:02:31;1.70;99.90
57829;DHT22;43657;52.698;6.314;2022-12-07T05:05:00;1.60;99.90
57829;DHT22;43657;52.698;6.314;2022-12-07T05:07:26;1.60;99.90
57829;DHT22;43657;52.698;6.314;2022-12-07T05:09:52;1.60;99.90
57829;DHT22;43657;52.698;6.314;2022-12-07T05:12:17;1.60;99.90
57829;DHT22;43657;52.698;6.314;2022-12-07T05:14:43;1.50;99.90
57829;DHT22;43657;52.698;6.314;2022-12-07T05:17:09;1.50;99.90
57829;DHT22;43657;52.698;6.314;2022-12-07T05:19:34;1.50;99.90
57829;DHT22;43657;52.698;6.314;2022-12-07T05:22:00;1.50;99.90
57829;DHT22;43657;52.698;6.314;2022-12-07T05:24:26;1.40;99.90
57829;DHT22;43657;52.698;6.314;2022-12-07T05:26:51;1.50;99.90
57829;DHT22;43657;52.698;6.314;2022-12-07T05:29:17;1.50;99.90
57829;DHT22;43657;52.698;6.314;2022-12-07T05:31:44;1.50;99.90
57829;DHT22;43657;52.698;6.314;2022-12-07T05:34:10;1.50;99.90
57829;DHT22;43657;52.698;6.314;2022-12-07T05:36:35;1.50;99.90
57829;DHT22;43657;52.698;6.314;2022-12-07T05:39:09;1.40;99.90
57829;DHT22;43657;52.698;6.314;2022-12-07T05:41:36;1.50;99.90
57829;DHT22;43657;52.698;6.314;2022-12-07T05:44:20;1.40;99.90
57829;DHT22;43657;52.698;6.314;2022-12-07T05:46:49;1.40;99.90
57829;DHT22;43657;52.698;6.314;2022-12-07T05:49:18;1.40;99.90
57829;DHT22;43657;52.698;6.314;2022-12-07T05:51:46;1.30;99.90
57829;DHT22;43657;52.698;6.314;2022-12-07T05:54:12;1.30;99.90
57829;DHT22;43657;52.698;6.314;2022-12-07T05:56:40;1.30;99.90
57829;DHT22;43657;52.698;6.314;2022-12-07T05:59:05;1.30;99.90
57829;DHT22;43657;52.698;6.314;2022-12-07T06:01:51;1.30;99.90
57829;DHT22;43657;52.698;6.314;2022-12-07T06:04:17;1.20;99.90
57829;DHT22;43657;52.698;6.314;2022-12-07T06:06:46;1.30;99.90
57829;DHT22;43657;52.698;6.314;2022-12-07T06:09:12;1.30;99.90
57829;DHT22;43657;52.698;6.314;2022-12-07T06:11:46;1.30;99.90
57829;DHT22;43657;52.698;6.314;2022-12-07T06:14:34;1.40;99.90
57829;DHT22;43657;52.698;6.314;2022-12-07T06:17:00;1.50;99.90
57829;DHT22;43657;52.698;6.314;2022-12-07T06:19:32;1.70;99.90
57829;DHT22;43657;52.698;6.314;2022-12-07T06:21:58;1.80;99.90
57829;DHT22;43657;52.698;6.314;2022-12-07T06:24:32;1.90;99.90
57829;DHT22;43657;52.698;6.314;2022-12-07T06:26:58;1.90;99.90
57829;DHT22;43657;52.698;6.314;2022-12-07T06:29:29;2.00;99.90
57829;DHT22;43657;52.698;6.314;2022-12-07T06:31:55;2.10;99.90
57829;DHT22;43657;52.698;6.314;2022-12-07T06:34:22;2.20;99.90
57829;DHT22;43657;52.698;6.314;2022-12-07T06:36:52;2.20;99.90
57829;DHT22;43657;52.698;6.314;2022-12-07T06:39:20;2.30;99.90
57829;DHT22;43657;52.698;6.314;2022-12-07T06:41:49;2.30;99.90
57829;DHT22;43657;52.698;6.314;2022-12-07T06:44:15;2.40;99.90
57829;DHT22;43657;52.698;6.314;2022-12-07T06:46:41;2.40;99.90
57829;DHT22;43657;52.698;6.314;2022-12-07T06:49:06;2.40;99.90
57829;DHT22;43657;52.698;6.314;2022-12-07T06:51:33;2.40;99.90
57829;DHT22;43657;52.698;6.314;2022-12-07T06:54:03;2.50;99.90
57829;DHT22;43657;52.698;6.314;2022-12-07T06:56:32;2.50;99.90
57829;DHT22;43657;52.698;6.314;2022-12-07T06:58:58;2.50;99.90
57829;DHT22;43657;52.698;6.314;2022-12-07T07:01:25;2.40;99.90
57829;DHT22;43657;52.698;6.314;2022-12-07T07:03:51;2.40;99.90
57829;DHT22;43657;52.698;6.314;2022-12-07T07:06:21;2.30;99.90
57829;DHT22;43657;52.698;6.314;2022-12-07T07:08:48;2.30;99.90
57829;DHT22;43657;52.698;6.314;2022-12-07T07:11:14;2.20;99.90
57829;DHT22;43657;52.698;6.314;2022-12-07T07:13:42;2.10;99.90
57829;DHT22;43657;52.698;6.314;2022-12-07T07:16:11;2.00;99.90
57829;DHT22;43657;52.698;6.314;2022-12-07T07:18:37;2.00;99.90
57829;DHT22;43657;52.698;6.314;2022-12-07T07:21:04;1.90;99.90
57829;DHT22;43657;52.698;6.314;2022-12-07T07:23:33;1.90;99.90
57829;DHT22;43657;52.698;6.314;2022-12-07T07:26:01;1.80;99.90
57829;DHT22;43657;52.698;6.314;2022-12-07T07:28:27;1.70;99.90
57829;DHT22;43657;52.698;6.314;2022-12-07T07:31:03;1.70;99.90
57829;DHT22;43657;52.698;6.314;2022-12-07T07:33:35;1.60;99.90
57829;DHT22;43657;52.698;6.314;2022-12-07T07:36:04;1.60;99.90
57829;DHT22;43657;52.698;6.314;2022-12-07T07:38:32;1.50;99.90
57829;DHT22;43657;52.698;6.314;2022-12-07T07:40:58;1.40;99.90
57829;DHT22;43657;52.698;6.314;2022-12-07T07:43:35;1.30;99.90
57829;DHT22;43657;52.698;6.314;2022-12-07T07:46:06;1.30;99.90
57829;DHT22;43657;52.698;6.314;2022-12-07T07:48:35;1.30;99.90
57829;DHT22;43657;52.698;6.314;2022-12-07T07:51:09;1.30;99.90
57829;DHT22;43657;52.698;6.314;2022-12-07T07:53:44;1.30;99.90
57829;DHT22;43657;52.698;6.314;2022-12-07T07:56:15;1.40;99.90
57829;DHT22;43657;52.698;6.314;2022-12-07T07:58:41;1.50;99.90
57829;DHT22;43657;52.698;6.314;2022-12-07T08:01:09;1.50;99.90
57829;DHT22;43657;52.698;6.314;2022-12-07T08:03:42;1.50;99.90
57829;DHT22;43657;52.698;6.314;2022-12-07T08:06:13;1.60;99.90
57829;DHT22;43657;52.698;6.314;2022-12-07T08:08:44;1.80;99.90
57829;DHT22;43657;52.698;6.314;2022-12-07T08:11:12;1.80;99.90
57829;DHT22;43657;52.698;6.314;2022-12-07T08:13:38;1.90;99.90
57829;DHT22;43657;52.698;6.314;2022-12-07T08:16:09;1.90;99.90
57829;DHT22;43657;52.698;6.314;2022-12-07T08:18:43;1.90;99.90
57829;DHT22;43657;52.698;6.314;2022-12-07T08:21:16;1.90;99.90
57829;DHT22;43657;52.698;6.314;2022-12-07T08:23:50;1.80;99.90
57829;DHT22;43657;52.698;6.314;2022-12-07T08:26:19;1.80;99.90
57829;DHT22;43657;52.698;6.314;2022-12-07T08:28:47;1.80;99.90
57829;DHT22;43657;52.698;6.314;2022-12-07T08:31:24;1.80;99.90
57829;DHT22;43657;52.698;6.314;2022-12-07T08:34:00;1.80;99.90
57829;DHT22;43657;52.698;6.314;2022-12-07T08:36:26;1.80;99.90
57829;DHT22;43657;52.698;6.314;2022-12-07T08:38:52;1.80;99.90
57829;DHT22;43657;52.698;6.314;2022-12-07T08:41:18;1.80;99.90
57829;DHT22;43657;52.698;6.314;2022-12-07T08:43:44;1.90;99.90
57829;DHT22;43657;52.698;6.314;2022-12-07T08:48:55;1.90;99.90
57829;DHT22;43657;52.698;6.314;2022-12-07T08:51:28;1.90;99.90
57829;DHT22;43657;52.698;6.314;2022-12-07T08:53:56;1.90;99.90
57829;DHT22;43657;52.698;6.314;2022-12-07T08:56:24;2.10;99.90
57829;DHT22;43657;52.698;6.314;2022-12-07T08:58:58;2.10;99.90
57829;DHT22;43657;52.698;6.314;2022-12-07T09:01:28;2.10;99.90
57829;DHT22;43657;52.698;6.314;2022-12-07T09:03:54;2.10;99.90
57829;DHT22;43657;52.698;6.314;2022-12-07T09:06:22;2.10;99.90
57829;DHT22;43657;52.698;6.314;2022-12-07T09:08:51;2.10;99.90
57829;DHT22;43657;52.698;6.314;2022-12-07T09:11:19;2.20;99.90
57829;DHT22;43657;52.698;6.314;2022-12-07T09:13:47;2.30;99.90
57829;DHT22;43657;52.698;6.314;2022-12-07T09:16:13;2.30;99.90
57829;DHT22;43657;52.698;6.314;2022-12-07T09:18:39;2.40;99.90
57829;DHT22;43657;52.698;6.314;2022-12-07T09:21:05;2.40;99.90
57829;DHT22;43657;52.698;6.314;2022-12-07T09:23:34;2.50;99.90
57829;DHT22;43657;52.698;6.314;2022-12-07T09:26:09;2.60;99.90
57829;DHT22;43657;52.698;6.314;2022-12-07T09:28:35;2.60;99.90
57829;DHT22;43657;52.698;6.314;2022-12-07T09:31:02;2.70;99.90
57829;DHT22;43657;52.698;6.314;2022-12-07T09:33:31;2.80;99.90
57829;DHT22;43657;52.698;6.314;2022-12-07T09:36:00;2.80;99.90
57829;DHT22;43657;52.698;6.314;2022-12-07T09:38:28;2.90;99.90
57829;DHT22;43657;52.698;6.314;2022-12-07T09:40:55;3.00;99.90
57829;DHT22;43657;52.698;6.314;2022-12-07T09:43:24;3.10;99.90
57829;DHT22;43657;52.698;6.314;2022-12-07T09:45:54;3.30;99.90
57829;DHT22;43657;52.698;6.314;2022-12-07T09:48:26;3.50;99.90
57829;DHT22;43657;52.698;6.314;2022-12-07T09:50:57;3.70;99.90
57829;DHT22;43657;52.698;6.314;2022-12-07T09:53:30;3.80;99.90
57829;DHT22;43657;52.698;6.314;2022-12-07T09:55:57;3.80;99.90
57829;DHT22;43657;52.698;6.314;2022-12-07T09:58:28;3.90;99.90
57829;DHT22;43657;52.698;6.314;2022-12-07T10:00:58;4.00;99.90
57829;DHT22;43657;52.698;6.314;2022-12-07T10:03:27;4.10;99.90
57829;DHT22;43657;52.698;6.314;2022-12-07T10:05:54;4.10;99.90
57829;DHT22;43657;52.698;6.314;2022-12-07T10:08:24;4.10;99.90
57829;DHT22;43657;52.698;6.314;2022-12-07T10:10:53;4.20;99.90
57829;DHT22;43657;52.698;6.314;2022-12-07T10:13:34;4.40;99.90
57829;DHT22;43657;52.698;6.314;2022-12-07T10:16:00;4.40;99.90
57829;DHT22;43657;52.698;6.314;2022-12-07T10:21:12;4.40;99.90
57829;DHT22;43657;52.698;6.314;2022-12-07T10:26:32;4.50;99.90
57829;DHT22;43657;52.698;6.314;2022-12-07T10:29:26;4.60;99.90
57829;DHT22;43657;52.698;6.314;2022-12-07T10:32:23;4.60;99.90
57829;DHT22;43657;52.698;6.314;2022-12-07T10:34:42;4.60;99.90
57829;DHT22;43657;52.698;6.314;2022-12-07T10:39:51;4.50;99.90
57829;DHT22;43657;52.698;6.314;2022-12-07T10:42:31;4.70;99.90
57829;DHT22;43657;52.698;6.314;2022-12-07T10:45:16;4.90;99.90
57829;DHT22;43657;52.698;6.314;2022-12-07T10:48:10;5.00;99.90
57829;DHT22;43657;52.698;6.314;2022-12-07T10:50:43;5.20;99.90
57829;DHT22;43657;52.698;6.314;2022-12-07T11:07:57;5.30;99.90
57829;DHT22;43657;52.698;6.314;2022-12-07T11:11:04;5.20;99.90
57829;DHT22;43657;52.698;6.314;2022-12-07T11:14:05;5.20;99.90
57829;DHT22;43657;52.698;6.314;2022-12-07T11:19:32;5.00;99.90
57829;DHT22;43657;52.698;6.314;2022-12-07T11:22:14;5.00;99.90
57829;DHT22;43657;52.698;6.314;2022-12-07T11:27:35;5.20;99.90
57829;DHT22;43657;52.698;6.314;2022-12-07T11:38:07;5.70;99.90
57829;DHT22;43657;52.698;6.314;2022-12-07T11:40:35;5.80;99.90
57829;DHT22;43657;52.698;6.314;2022-12-07T11:46:03;5.90;99.90
57829;DHT22;43657;52.698;6.314;2022-12-07T11:48:37;6.00;99.90
57829;DHT22;43657;52.698;6.314;2022-12-07T11:51:07;6.00;99.90
57829;DHT22;43657;52.698;6.314;2022-12-07T11:54:19;6.10;99.90
57829;DHT22;43657;52.698;6.314;2022-12-07T11:56:52;6.00;99.90
57829;DHT22;43657;52.698;6.314;2022-12-07T11:59:25;6.00;99.90
57829;DHT22;43657;52.698;6.314;2022-12-07T12:02:14;5.90;99.90
57829;DHT22;43657;52.698;6.314;2022-12-07T12:07:23;5.90;99.90
57829;DHT22;43657;52.698;6.314;2022-12-07T12:10:21;5.90;99.90
57829;DHT22;43657;52.698;6.314;2022-12-07T12:18:42;6.00;99.90
57829;DHT22;43657;52.698;6.314;2022-12-07T12:21:17;6.20;99.90
57829;DHT22;43657;52.698;6.314;2022-12-07T12:23:45;6.30;99.90
57829;DHT22;43657;52.698;6.314;2022-12-07T12:26:33;6.60;99.90
57829;DHT22;43657;52.698;6.314;2022-12-07T12:29:03;6.80;99.90
57829;DHT22;43657;52.698;6.314;2022-12-07T12:31:41;6.80;99.90
57829;DHT22;43657;52.698;6.314;2022-12-07T12:34:32;7.00;99.90
57829;DHT22;43657;52.698;6.314;2022-12-07T12:37:01;7.00;99.90
57829;DHT22;43657;52.698;6.314;2022-12-07T12:39:27;7.00;99.90
57829;DHT22;43657;52.698;6.314;2022-12-07T12:41:55;7.00;99.90
57829;DHT22;43657;52.698;6.314;2022-12-07T12:46:55;7.00;99.90
57829;DHT22;43657;52.698;6.314;2022-12-07T12:55:16;6.70;99.90
57829;DHT22;43657;52.698;6.314;2022-12-07T12:57:45;6.70;99.90
57829;DHT22;43657;52.698;6.314;2022-12-07T13:00:21;6.50;99.90
57829;DHT22;43657;52.698;6.314;2022-12-07T13:02:55;6.50;99.90
57829;DHT22;43657;52.698;6.314;2022-12-07T13:05:25;6.40;99.90
57829;DHT22;43657;52.698;6.314;2022-12-07T13:08:16;6.30;99.90
57829;DHT22;43657;52.698;6.314;2022-12-07T13:10:43;6.30;99.90
57829;DHT22;43657;52.698;6.314;2022-12-07T13:18:36;6.20;99.90
57829;DHT22;43657;52.698;6.314;2022-12-07T13:29:09;6.00;99.90
57829;DHT22;43657;52.698;6.314;2022-12-07T13:31:54;5.90;99.90
57829;DHT22;43657;52.698;6.314;2022-12-07T13:34:40;5.90;99.90
57829;DHT22;43657;52.698;6.314;2022-12-07T13:39:50;5.80;99.90
57829;DHT22;43657;52.698;6.314;2022-12-07T13:44:52;5.80;99.90
57829;DHT22;43657;52.698;6.314;2022-12-07T13:47:22;5.70;99.90
57829;DHT22;43657;52.698;6.314;2022-12-07T13:49:59;5.70;99.90
57829;DHT22;43657;52.698;6.314;2022-12-07T13:52:27;5.70;99.90
57829;DHT22;43657;52.698;6.314;2022-12-07T13:57:29;5.60;99.90
57829;DHT22;43657;52.698;6.314;2022-12-07T14:00:04;5.50;99.90
57829;DHT22;43657;52.698;6.314;2022-12-07T14:02:36;5.50;99.90
57829;DHT22;43657;52.698;6.314;2022-12-07T14:05:23;5.40;99.90
57829;DHT22;43657;52.698;6.314;2022-12-07T14:08:21;5.30;99.90
57829;DHT22;43657;52.698;6.314;2022-12-07T14:13:35;5.20;99.90
57829;DHT22;43657;52.698;6.314;2022-12-07T14:16:54;5.10;99.90
57829;DHT22;43657;52.698;6.314;2022-12-07T14:18:55;5.10;99.90
57829;DHT22;43657;52.698;6.314;2022-12-07T14:21:27;5.10;99.90
57829;DHT22;43657;52.698;6.314;2022-12-07T14:24:17;5.00;99.90
57829;DHT22;43657;52.698;6.314;2022-12-07T14:26:44;5.00;99.90
57829;DHT22;43657;52.698;6.314;2022-12-07T14:31:56;5.00;99.90
57829;DHT22;43657;52.698;6.314;2022-12-07T14:34:23;4.90;99.90
57829;DHT22;43657;52.698;6.314;2022-12-07T14:36:49;4.90;99.90
57829;DHT22;43657;52.698;6.314;2022-12-07T14:39:15;4.80;99.90
57829;DHT22;43657;52.698;6.314;2022-12-07T14:41:41;4.80;99.90
57829;DHT22;43657;52.698;6.314;2022-12-07T14:44:23;4.70;99.90
57829;DHT22;43657;52.698;6.314;2022-12-07T14:46:49;4.70;99.90
57829;DHT22;43657;52.698;6.314;2022-12-07T14:49:16;4.60;99.90
57829;DHT22;43657;52.698;6.314;2022-12-07T14:51:45;4.60;99.90
57829;DHT22;43657;52.698;6.314;2022-12-07T14:54:19;4.60;99.90
57829;DHT22;43657;52.698;6.314;2022-12-07T14:56:45;4.50;99.90
57829;DHT22;43657;52.698;6.314;2022-12-07T14:59:15;4.40;99.90
57829;DHT22;43657;52.698;6.314;2022-12-07T15:01:41;4.40;99.90
57829;DHT22;43657;52.698;6.314;2022-12-07T15:04:07;4.30;99.90
57829;DHT22;43657;52.698;6.314;2022-12-07T15:06:32;4.20;99.90
57829;DHT22;43657;52.698;6.314;2022-12-07T15:08:58;4.20;99.90
57829;DHT22;43657;52.698;6.314;2022-12-07T15:11:24;4.20;99.90
57829;DHT22;43657;52.698;6.314;2022-12-07T15:13:50;4.20;99.90
57829;DHT22;43657;52.698;6.314;2022-12-07T15:16:35;4.20;99.90
57829;DHT22;43657;52.698;6.314;2022-12-07T15:19:01;4.10;99.90
57829;DHT22;43657;52.698;6.314;2022-12-07T15:21:27;4.10;99.90
57829;DHT22;43657;52.698;6.314;2022-12-07T15:23:53;4.20;99.90
57829;DHT22;43657;52.698;6.314;2022-12-07T15:26:20;4.20;99.90
57829;DHT22;43657;52.698;6.314;2022-12-07T15:28:45;4.20;99.90
57829;DHT22;43657;52.698;6.314;2022-12-07T15:31:13;4.10;99.90
57829;DHT22;43657;52.698;6.314;2022-12-07T15:33:39;4.10;99.90
57829;DHT22;43657;52.698;6.314;2022-12-07T15:36:04;4.10;99.90
57829;DHT22;43657;52.698;6.314;2022-12-07T15:38:31;4.10;99.90
57829;DHT22;43657;52.698;6.314;2022-12-07T15:40:57;4.10;99.90
57829;DHT22;43657;52.698;6.314;2022-12-07T15:43:23;4.10;99.90
57829;DHT22;43657;52.698;6.314;2022-12-07T15:46:08;4.10;99.90
57829;DHT22;43657;52.698;6.314;2022-12-07T15:48:34;4.00;99.90
57829;DHT22;43657;52.698;6.314;2022-12-07T15:51:07;3.90;99.90
57829;DHT22;43657;52.698;6.314;2022-12-07T15:53:34;3.90;99.90
57829;DHT22;43657;52.698;6.314;2022-12-07T15:56:05;3.80;99.90
57829;DHT22;43657;52.698;6.314;2022-12-07T15:58:31;3.60;99.90
57829;DHT22;43657;52.698;6.314;2022-12-07T16:00:57;3.60;99.90
57829;DHT22;43657;52.698;6.314;2022-12-07T16:03:23;3.50;99.90
57829;DHT22;43657;52.698;6.314;2022-12-07T16:05:52;3.40;99.90
57829;DHT22;43657;52.698;6.314;2022-12-07T16:08:18;3.30;99.90
57829;DHT22;43657;52.698;6.314;2022-12-07T16:10:44;3.20;99.90
57829;DHT22;43657;52.698;6.314;2022-12-07T16:13:11;3.20;99.90
57829;DHT22;43657;52.698;6.314;2022-12-07T16:15:42;3.10;99.90
57829;DHT22;43657;52.698;6.314;2022-12-07T16:18:08;3.10;99.90
57829;DHT22;43657;52.698;6.314;2022-12-07T16:20:34;3.00;99.90
57829;DHT22;43657;52.698;6.314;2022-12-07T16:23:00;2.90;99.90
57829;DHT22;43657;52.698;6.314;2022-12-07T16:25:26;3.00;99.90
57829;DHT22;43657;52.698;6.314;2022-12-07T16:27:52;3.00;99.90
57829;DHT22;43657;52.698;6.314;2022-12-07T16:30:21;3.00;99.90
57829;DHT22;43657;52.698;6.314;2022-12-07T16:32:47;3.00;99.90
57829;DHT22;43657;52.698;6.314;2022-12-07T16:35:13;3.00;99.90
57829;DHT22;43657;52.698;6.314;2022-12-07T16:37:41;3.00;99.90
57829;DHT22;43657;52.698;6.314;2022-12-07T16:40:08;3.00;99.90
57829;DHT22;43657;52.698;6.314;2022-12-07T16:42:35;3.00;99.90
57829;DHT22;43657;52.698;6.314;2022-12-07T16:45:01;3.10;99.90
57829;DHT22;43657;52.698;6.314;2022-12-07T16:47:27;3.10;99.90
57829;DHT22;43657;52.698;6.314;2022-12-07T16:49:53;3.10;99.90
57829;DHT22;43657;52.698;6.314;2022-12-07T16:52:21;3.20;99.90
57829;DHT22;43657;52.698;6.314;2022-12-07T16:54:48;3.20;99.90
57829;DHT22;43657;52.698;6.314;2022-12-07T16:57:14;3.20;99.90
57829;DHT22;43657;52.698;6.314;2022-12-07T16:59:40;3.20;99.90
57829;DHT22;43657;52.698;6.314;2022-12-07T17:02:10;3.20;99.90
57829;DHT22;43657;52.698;6.314;2022-12-07T17:04:39;3.30;99.90
57829;DHT22;43657;52.698;6.314;2022-12-07T17:07:10;3.30;99.90
57829;DHT22;43657;52.698;6.314;2022-12-07T17:09:36;3.20;99.90
57829;DHT22;43657;52.698;6.314;2022-12-07T17:12:02;3.30;99.90
57829;DHT22;43657;52.698;6.314;2022-12-07T17:14:28;3.20;99.90
57829;DHT22;43657;52.698;6.314;2022-12-07T17:17:12;3.20;99.90
57829;DHT22;43657;52.698;6.314;2022-12-07T17:19:38;3.10;99.90
57829;DHT22;43657;52.698;6.314;2022-12-07T17:22:04;3.10;99.90
57829;DHT22;43657;52.698;6.314;2022-12-07T17:24:30;3.10;99.90
57829;DHT22;43657;52.698;6.314;2022-12-07T17:26:56;3.00;99.90
57829;DHT22;43657;52.698;6.314;2022-12-07T17:29:22;3.10;99.90
57829;DHT22;43657;52.698;6.314;2022-12-07T17:31:48;3.00;99.90
57829;DHT22;43657;52.698;6.314;2022-12-07T17:34:15;2.90;99.90
57829;DHT22;43657;52.698;6.314;2022-12-07T17:36:43;2.90;99.90
57829;DHT22;43657;52.698;6.314;2022-12-07T17:39:13;2.90;99.90
57829;DHT22;43657;52.698;6.314;2022-12-07T17:41:39;2.90;99.90
57829;DHT22;43657;52.698;6.314;2022-12-07T17:44:23;2.90;99.90
57829;DHT22;43657;52.698;6.314;2022-12-07T17:46:52;2.80;99.90
57829;DHT22;43657;52.698;6.314;2022-12-07T17:49:24;2.90;99.90
57829;DHT22;43657;52.698;6.314;2022-12-07T17:51:50;2.80;99.90
57829;DHT22;43657;52.698;6.314;2022-12-07T17:54:34;2.80;99.90
57829;DHT22;43657;52.698;6.314;2022-12-07T17:57:00;2.70;99.90
57829;DHT22;43657;52.698;6.314;2022-12-07T17:59:25;2.80;99.90
57829;DHT22;43657;52.698;6.314;2022-12-07T18:01:51;2.70;99.90
57829;DHT22;43657;52.698;6.314;2022-12-07T18:04:17;2.70;99.90
57829;DHT22;43657;52.698;6.314;2022-12-07T18:06:43;2.70;99.90
57829;DHT22;43657;52.698;6.314;2022-12-07T18:09:09;2.70;99.90
57829;DHT22;43657;52.698;6.314;2022-12-07T18:11:35;2.70;99.90
57829;DHT22;43657;52.698;6.314;2022-12-07T18:14:01;2.70;99.90
57829;DHT22;43657;52.698;6.314;2022-12-07T18:16:28;2.60;99.90